Terminal Aerodrome Forecast
Issued by NWS

Home | Current Version | Previous Version | Text Only | Print | Product List | Glossary On
Versions: 1 2 3 4 5 6 7 8 9 10
915
FTUS42 TJSJ 231720
TAFJPS
TAF
TJPS 231720Z 2318/2418 14015KT P6SM VCSH SCT025 BKN060
     FM232330 10011KT P6SM FEW030 SCT060 BKN100
     FM240600 07006KT P6SM VCSH SCT025 BKN050
     FM241400 12014KT P6SM SCT030 BKN100
      AMD NOT SKED TIL 240300=

USA.gov is the U.S. government's official web portal to all federal, state and local government web resources and services.